x

Neah Bay, - 6nm North Of Cape Flattery, Wa (traffic Separation Lighted Buoy) (46087) Wave Buoy

4:20pm - Fri 21st Jul 2017 All times are PDT. -7 hours from GMT.

  • Sig Wave height 1.0ft
  • Swell Direction
  • Peak Period 16s
  • Average Period 6s
  • Wind
    2mph, 2mph gusts
  • Sea Temp 55°f
  • Air Temp 58°f
  • Sea Pressure 1021.4mb
  • Neah Bay, - 6nm North Of Cape Flattery, Wa     (traffic Separation Lighted Buoy)
  • Neah Bay, - 6nm North Of Cape Flattery, Wa     (traffic Separation Lighted Buoy)

More Historic Weather Station data

Upgrade to MSW Pro to gain access to the past 30 days of data for over 8000 Wavebouys and Weather Stations around the globe.

Join Pro

Comparision Forecast

View Surf forecast
   
Fri 07/21 4:20pm 1ft 16s 6s 2 2 mph 1021.4mb 55f 58f
3:50pm 1ft 15s 6s 2 2 mph 1021.5mb 55f 57f
3:20pm 1ft 15s 6s 4 7 mph 1021.6mb 55f 57f
2:50pm 1ft 13s 6s 4 7 mph 1021.6mb 55f 57f
2:20pm 1ft 15s 6s 2 4 mph 1021.4mb 55f 57f
1:50pm 1.3ft 14s 6s  -  2 mph 1021.3mb 55f 57f
1:20pm 1.3ft 15s 5s 2 2 mph 1021.3mb 55f 55f
12:50pm 1.3ft 13s 5s 2 2 mph 1021.1mb 55f 55f
12:20pm 1.3ft 14s 5s 2 2 mph 1020.8mb 54f 55f
11:50am 1.3ft 15s 5s 2 2 mph 1020.9mb 54f 55f
11:20am 1.3ft 13s 5s 2 2 mph 1020.7mb 54f 55f
10:50am 1.3ft 14s 5s 2 2 mph 1020.7mb 54f 54f
10:20am 1.3ft 13s 5s 2 2 mph 1020.7mb 54f 54f
9:50am 1.3ft 15s 6s 2 2 mph 1020.8mb 54f 54f
9:20am 1.3ft 16s 6s 7 7 mph 1020.7mb 54f 55f
8:50am 1.3ft 13s 6s 4 7 mph 1020.3mb 54f 54f
8:20am 1.3ft 8s 6s 4 4 mph 1020.1mb 54f 54f
7:50am 1.3ft 13s 6s 4 4 mph 1020.2mb 54f 53f
7:20am 1.3ft 16s 6s 2 2 mph 1020.2mb 53f 53f
6:50am 1.3ft 8s 6s 2 4 mph 1019.9mb 54f 53f
6:20am 1.3ft 14s 7s 4 4 mph 1019.8mb 54f 53f
5:50am 1.3ft 14s 7s 4 7 mph 1019.8mb 54f 53f
5:20am 1.3ft 8s 6s 7 7 mph 1019.7mb 54f 53f
4:50am 1.3ft 14s 7s 4 4 mph 1019.8mb 54f 53f
4:20am 1.3ft 8s 6s 2 2 mph 1019.7mb 54f 53f
3:50am 1.3ft 14s 6s 2 4 mph 1019.7mb 54f 54f
3:20am 1.3ft 6s 6s 2 2 mph 1019.8mb 54f 54f
2:50am 1.3ft 14s 6s  -  2 mph 1020mb 55f 53f
2:20am 1.3ft 8s 5s 2 2 mph 1020.2mb 55f 53f
1:50am 1.3ft 14s 5s 2 2 mph 1020.2mb 55f 53f
1:20am 1.6ft 14s 5s  -  2 mph 1020.2mb 55f 54f
12:50am 1.3ft 8s 5s 2 2 mph 1020.3mb 55f 53f
12:20am 1.3ft 14s 5s 2 2 mph 1020.4mb 55f 54f
Thu 07/20 11:50pm 1.3ft 14s 5s 2 2 mph 1020.2mb 55f 54f
11:20pm 1.3ft 14s 5s 4 4 mph 1020.2mb 55f 53f
10:50pm 1.3ft 14s 5s 4 4 mph 1020.1mb 55f 54f
10:20pm 1.3ft 8s 5s 4 7 mph 1020.2mb 55f 55f
9:50pm 1.6ft 8s 5s 4 7 mph 1020.2mb 55f 56f
9:20pm 1.3ft 8s 5s 2 4 mph 1020.1mb 56f 56f
8:50pm 1.3ft 14s 5s 4 4 mph 1020.1mb 56f 56f
8:20pm 1.3ft 8s 5s 2 2 mph 1020.3mb 56f 57f
7:50pm 1.3ft 7s 5s 2 4 mph 1020.5mb 56f 57f
7:20pm 1.3ft 5s 5s 2 4 mph 1020.6mb 57f 58f
6:50pm 1.3ft 8s 5s 2 2 mph 1020.6mb 57f 58f
6:20pm 1.6ft 4s 5s 4 7 mph 1020.6mb 57f 58f
5:50pm 1.6ft 15s 5s 4 4 mph 1020.6mb 57f 58f
5:20pm 1.3ft 14s 5s 2 4 mph 1020.7mb 57f 59f
4:50pm 1.6ft 5s 5s 2 4 mph 1021mb 57f 58f
4:20pm 1.6ft 4s 5s 2 4 mph 1021.1mb 57f 58f
3:20pm 1.6ft 5s 5s 2 4 mph 1021mb 56f 57f
2:50pm 2ft 5s 5s 4 4 mph 1021.2mb 56f 57f
2:20pm 1.6ft 5s 5s 4 4 mph 1021.1mb 56f 57f
1:50pm 1.6ft 5s 5s 7 7 mph 1021mb 55f 56f
1:20pm 1.6ft 5s 5s 7 9 mph 1020.8mb 55f 56f
12:50pm 1.6ft 5s 5s 9 9 mph 1020.8mb 55f 55f
12:20pm 1.6ft 5s 4s 7 9 mph 1020.6mb 55f 55f
11:50am 2ft 5s 4s 9 11 mph 1020.3mb 55f 56f
11:20am 2ft 5s 5s 11 11 mph 1019.8mb 54f 56f
10:50am 2ft 6s 5s 9 11 mph 1019.5mb 54f 56f
10:20am 1.6ft 6s 5s 7 9 mph 1019.1mb 54f 56f
9:50am 2ft 6s 5s 7 9 mph 1018.9mb 54f 56f
9:20am 2ft 5s 5s 9 9 mph 1018.8mb 54f 56f
8:50am 2ft 5s 5s 7 9 mph 1018.7mb 54f 55f
8:20am 1.6ft 8s 6s 7 7 mph 1018.5mb 54f 55f
7:50am 1.3ft 8s 6s 7 7 mph 1018.2mb 54f 55f
7:20am 1.6ft 7s  -  7 9 mph 1017.9mb 54f 55f
6:50am 1.3ft 8s 6s 9 11 mph 1017.5mb 54f 56f
6:20am 1.3ft 9s 7s 4 7 mph 1017.3mb 54f 57f
5:50am 1.3ft 9s 7s 9 9 mph 1017mb 54f 56f
5:20am 1.3ft 9s 6s 9 9 mph 1016.8mb 54f 56f
4:50am 1.3ft 9s 7s 9 11 mph 1016.7mb 54f 56f
4:20am 1.3ft 9s 6s 9 9 mph 1016.6mb 55f 56f
3:50am 1.3ft 9s 7s 9 11 mph 1016.4mb 55f 56f
3:20am 1ft 9s 6s 9 11 mph 1016.3mb 55f 57f
2:50am 1.3ft 10s 6s 9 11 mph 1016.3mb 55f 56f
2:20am 1.3ft 9s 6s 7 9 mph 1016.4mb 55f 57f
1:50am 1.3ft 9s 6s 4 7 mph 1016.5mb 55f 58f
1:20am 1.3ft 6s 6s 4 4 mph 1016.8mb 55f 56f
12:50am 1.3ft 6s 6s 4 7 mph 1016.7mb 55f 57f
12:20am 1.3ft 9s 6s 4 4 mph 1016.8mb 55f 57f
Wed 07/19 11:50pm 1.3ft 6s 5s 4 4 mph 1016.8mb 55f 57f
11:20pm 1.3ft 9s 5s 4 4 mph 1016.8mb 55f 58f
10:50pm 1.3ft 6s 5s  -  2 mph 1016.9mb 55f 58f
10:20pm 1.3ft 6s 5s 2 2 mph 1017mb 55f 58f
9:50pm 1.3ft 6s 5s 2 4 mph 1016.9mb 55f 57f
9:20pm 1.6ft 9s 5s 2 2 mph 1016.8mb 55f 56f
8:50pm 1.3ft 9s 5s 2 2 mph 1016.6mb 55f 57f
8:20pm 1.3ft 6s 5s  -  2 mph 1016.9mb 55f 56f
7:50pm 1.3ft 9s 5s 2 2 mph 1017mb 55f 56f
7:20pm 1.3ft 6s 5s 2 2 mph 1017mb 55f 56f
6:50pm 1.6ft 6s 5s 2 4 mph 1017.1mb 55f 56f
5:50pm 1.6ft 6s 5s 4 4 mph 1017.5mb 55f 57f
5:20pm 1.3ft 6s 5s 4 4 mph 1017.7mb 55f 56f
4:50pm 1.3ft 6s 5s 4 4 mph 1017.9mb 55f 57f
4:20pm 1.3ft 10s 5s 7 7 mph 1018.2mb 55f 57f
3:50pm 1.6ft 6s 5s 4 4 mph 1018.3mb 55f 56f
3:20pm 1.3ft 6s 5s 7 9 mph 1018.4mb 55f 56f
2:50pm 1.3ft 6s 5s 9 11 mph 1018.4mb 55f 56f
2:20pm 1.3ft 10s 6s 9 9 mph 1018.7mb 55f 56f
1:50pm 1.3ft 6s 5s 9 11 mph 1018.8mb 55f 56f
1:20pm 1.3ft 6s 5s 11 13 mph 1018.9mb 55f 57f
12:50pm 1.3ft 6s 5s 9 11 mph 1019mb 55f 56f
12:20pm 1.3ft 6s 5s 9 11 mph 1019mb 55f 56f
11:50am 1.6ft 5s 4s 9 11 mph 1019.1mb 55f 56f
11:20am 1.6ft 6s 4s 9 11 mph 1019.3mb 54f 56f
10:50am 1.6ft 6s 4s 7 9 mph 1019.2mb 54f 55f
10:20am 1.6ft 5s 5s 7 9 mph 1019.2mb 54f 55f
9:50am 2ft 6s 5s 4 7 mph 1019.4mb 54f 56f
9:20am 2ft 6s 5s 4 4 mph 1019.5mb 54f 55f
8:50am 2ft 5s 5s 4 7 mph 1019.4mb 54f 55f
8:20am 2ft 5s 5s 4 7 mph 1019.4mb 54f 54f
7:50am 2ft 5s 5s 4 4 mph 1019.4mb 54f 54f
7:20am 2ft 6s 5s 4 4 mph 1019.4mb 54f 54f
6:50am 2ft 6s 5s 4 4 mph 1019.4mb 54f 55f
6:20am 2ft 6s 6s 2 4 mph 1019.3mb 54f 55f
5:50am 2ft 6s 5s 2 4 mph 1019.2mb 54f 55f
5:20am 2.5ft 6s 6s 4 4 mph 1019.2mb 54f 55f
4:50am 2ft 7s 6s 2 4 mph 1019.1mb 54f 55f
4:20am 2ft 6s 6s 4 4 mph 1019mb 54f 56f
3:50am 2ft 6s 6s 2 4 mph 1018.9mb 54f 56f
3:20am 1.6ft 6s 6s 4 9 mph 1018.9mb 54f 56f
2:50am 2ft 7s 6s 4 4 mph 1018.9mb 55f 56f
2:20am 2ft 6s 5s 4 4 mph 1018.8mb 55f 56f
1:50am 1.6ft 7s 5s 4 4 mph 1018.8mb 55f 56f
1:20am 2ft 6s 5s 4 7 mph 1018.8mb 55f 57f
12:50am 1.6ft 6s 5s 4 4 mph 1018.8mb 55f 57f
12:20am 1.6ft 6s 5s 4 9 mph 1018.6mb 55f 57f
Tue 07/18 11:50pm 1.6ft 7s 5s 4 7 mph 1018.5mb 55f 57f
11:20pm 1.6ft 6s 5s 9 11 mph 1018.6mb 55f 57f
10:50pm 1.6ft 6s 5s 7 9 mph 1018.4mb 55f 57f
10:20pm 1.3ft 7s 5s 7 7 mph 1018.3mb 55f 57f
9:50pm 1.6ft 6s 5s 7 9 mph 1018mb 55f 57f
9:20pm 1.6ft 6s 5s 7 7 mph 1017.7mb 55f 56f
8:50pm 2ft 6s 5s 7 7 mph 1017.6mb 56f 56f
8:20pm 2ft 6s 5s 7 7 mph 1017.6mb 56f 56f
7:50pm 2ft 6s 5s 7 7 mph 1017.5mb 56f 57f
7:20pm 2ft 5s 5s 7 7 mph 1017.5mb 56f 57f
6:50pm 2ft 5s 5s 7 9 mph 1017.4mb 55f 57f
6:20pm 2ft 5s 5s 9 9 mph 1017.5mb 55f 57f
5:50pm 2ft 7s 5s 7 9 mph 1017.5mb 55f 56f
5:20pm 2ft 5s 5s 4 4 mph 1017.7mb 55f 56f
4:50pm 2ft 6s 5s 2 4 mph 1017.7mb 55f 56f
4:20pm 2ft 6s 5s 4 7 mph 1017.8mb 55f 55f
3:50pm 2ft 6s 5s 4 7 mph 1017.8mb 56f 55f
3:20pm 2ft 6s 5s 4 4 mph 1018mb 55f 55f
2:50pm 2ft 6s 5s 7 7 mph 1017.9mb 55f 55f
2:20pm 2ft 5s 5s 7 9 mph 1017.9mb 55f 55f
1:50pm 2ft 6s 5s 9 11 mph 1017.9mb 54f 55f
1:20pm 2ft 5s 5s 7 9 mph 1017.9mb 54f 55f
12:50pm 2ft 5s 5s 9 11 mph 1018mb 54f 55f
12:20pm 2ft 5s 5s 9 11 mph 1018mb 54f 55f
11:50am 2ft 5s 5s 7 9 mph 1017.9mb 54f 55f
11:20am 2ft 5s 5s 7 9 mph 1017.7mb 54f 55f
10:50am 2ft 5s 5s 7 11 mph 1017.6mb 54f 54f
10:20am 2.5ft 5s 5s 4 7 mph 1017.7mb 54f 53f
9:50am 2ft 5s 4s 7 7 mph 1017.7mb 54f 53f
9:20am 2.5ft 5s 4s 7 9 mph 1017.7mb 54f 52f
8:50am 2ft 4s 4s 7 9 mph 1017.6mb 54f 52f
8:20am 2ft 4s 4s 9 9 mph 1017.4mb 54f 52f
7:50am 2ft 5s 5s 9 11 mph 1017.2mb 54f 52f
7:20am 2ft 5s 5s 7 7 mph 1017.1mb 54f 52f
6:50am 2ft 5s 5s 7 7 mph 1017mb 54f 53f
6:20am 2ft 5s 5s 7 9 mph 1017.1mb 54f 53f
5:50am 2ft 5s 5s 4 7 mph 1017mb 54f 54f
5:20am 2ft 5s 5s 4 4 mph 1016.9mb 54f 54f
4:50am 2ft 5s 5s 4 4 mph 1016.9mb 54f 55f
4:20am 2ft 5s 5s 4 7 mph 1017mb 54f 55f
3:50am 2ft 6s 5s 4 7 mph 1017mb 54f 55f
3:20am 2ft 6s 5s 7 9 mph 1017.1mb 54f 55f
2:50am 2ft 6s 5s 7 9 mph 1017mb 53f 56f
2:20am 2ft 5s 5s 7 9 mph 1017mb 53f 55f
1:50am 2ft 6s 5s 9 11 mph 1016.9mb 54f 55f
1:20am 2.5ft 5s 5s 7 9 mph 1016.9mb 54f 55f
12:50am 2.5ft 6s 5s 7 9 mph 1017.1mb 54f 55f
12:20am 2.5ft 6s 5s 7 9 mph 1017.1mb 54f 56f